Terminal Aerodrome Forecast
Issued by NWS Tampa Bay Area, FL

Home | Current Version | Previous Version | Text Only | Print | Product List | Glossary On
Versions: 1 2 3 4 5 6 7 8 9 10 11 12 13 14 15 16 17 18 19 20 21 22 23 24 25 26 27 28 29 30 31 32 33 34
000
FTUS42 KTBW 300257 AAA
TAFTPA
TAF AMD
KTPA 300257Z 3003/3024 23004KT P6SM SCT025 BKN250
     FM300900 23004KT P6SM VCSH SCT035
     FM301200 VRB03KT P6SM VCTS SCT035CB BKN090
     FM301600 24007KT P6SM SHRA SCT040 BKN090=

USA.gov is the U.S. government's official web portal to all federal, state and local government web resources and services.